Matecaña International Airport

Airport
ICAO code: 
SKPE
IATA Code: 
PEI
Summary
ICAO Region: 
CARSAM
Territory: 
Location: 
Pereira, Risaraldo Department
Serving: 
Pereira
Elevation: 
4418 ft
Coordinates: 
Aerial View: 
4° 48' 54.756" N, 75° 44' 10.738" W
Metar
Observation
SKPE 292100Z 21006KT 9999 SCT016TCU BKN080 25/17 Q1013 RMK TCU SE/S/NW A2992
Station
Pereira / Matecana
Date/Time
2021-11-29 21:00:00
Wind direction
210°
Wind speed
06 kts
Lowest cloud amount
scattered clouds
Temperature
25°C
Dew point
17°C
Humidity
61%
QNH
1013 hPa
Weather condition
n/a

Matecaña International Airport (Spanish: Aeropuerto Internacional de Matecaña) (IATA: PEI, ICAO: SKPE) serves the city of Pereira, Colombia. It also serves as an alternate airport for the cities of Armenia, Cartago, Manizales, Medellín, Cali and Bogotá.

Climatology

Tropical rainforest climate (Köppen climate classification Af)

Runways

Designator Length Width Surface Rops
8/26 2020 45 ASP Yes/Yes
Airport map: 
Aerial View: 

SKYbrary Partners:

Safety knowledge contributed by: